sensor_id;sensor_type;location;lat;lon;timestamp;P1;durP1;ratioP1;P2;durP2;ratioP2
61739;SDS011;47645;45.288;12.038;2022-12-29T00:03:14;62.3;;;31.4;;
61739;SDS011;47645;45.288;12.038;2022-12-29T00:44:22;65.5;;;34.9;;
61739;SDS011;47645;45.288;12.038;2022-12-29T00:53:17;60.6;;;31.8;;
61739;SDS011;47645;45.288;12.038;2022-12-29T01:03:18;59.5;;;31.1;;
61739;SDS011;47645;45.288;12.038;2022-12-29T01:13:18;53.1;;;27.6;;
61739;SDS011;47645;45.288;12.038;2022-12-29T01:23:19;61.9;;;32.6;;
61739;SDS011;47645;45.288;12.038;2022-12-29T01:33:19;66.0;;;34.2;;
61739;SDS011;47645;45.288;12.038;2022-12-29T01:43:20;58.7;;;31.8;;
61739;SDS011;47645;45.288;12.038;2022-12-29T01:53:21;50.2;;;27.1;;
61739;SDS011;47645;45.288;12.038;2022-12-29T02:03:21;59.6;;;30.6;;
61739;SDS011;47645;45.288;12.038;2022-12-29T02:13:23;55.3;;;30.2;;
61739;SDS011;47645;45.288;12.038;2022-12-29T02:23:28;50.8;;;27.5;;
61739;SDS011;47645;45.288;12.038;2022-12-29T02:33:25;66.9;;;35.0;;
61739;SDS011;47645;45.288;12.038;2022-12-29T02:43:24;55.8;;;30.8;;
61739;SDS011;47645;45.288;12.038;2022-12-29T02:54:41;66.8;;;36.0;;
61739;SDS011;47645;45.288;12.038;2022-12-29T03:03:27;69.3;;;36.1;;
61739;SDS011;47645;45.288;12.038;2022-12-29T03:23:25;54.5;;;28.7;;
61739;SDS011;47645;45.288;12.038;2022-12-29T03:33:27;50.8;;;28.5;;
61739;SDS011;47645;45.288;12.038;2022-12-29T03:43:26;36.9;;;21.4;;
61739;SDS011;47645;45.288;12.038;2022-12-29T03:53:26;63.8;;;34.9;;
61739;SDS011;47645;45.288;12.038;2022-12-29T04:03:27;66.3;;;36.4;;
61739;SDS011;47645;45.288;12.038;2022-12-29T04:13:27;53.4;;;31.8;;
61739;SDS011;47645;45.288;12.038;2022-12-29T04:23:28;59.9;;;32.9;;
61739;SDS011;47645;45.288;12.038;2022-12-29T04:33:28;53.1;;;31.5;;
61739;SDS011;47645;45.288;12.038;2022-12-29T04:43:29;46.9;;;30.3;;
61739;SDS011;47645;45.288;12.038;2022-12-29T04:53:29;48.5;;;30.0;;
61739;SDS011;47645;45.288;12.038;2022-12-29T05:03:30;41.1;;;26.8;;
61739;SDS011;47645;45.288;12.038;2022-12-29T05:13:30;38.9;;;23.2;;
61739;SDS011;47645;45.288;12.038;2022-12-29T05:23:30;29.2;;;19.5;;
61739;SDS011;47645;45.288;12.038;2022-12-29T05:33:31;46.7;;;28.1;;
61739;SDS011;47645;45.288;12.038;2022-12-29T05:43:31;42.2;;;27.2;;
61739;SDS011;47645;45.288;12.038;2022-12-29T05:53:32;40.9;;;25.5;;
61739;SDS011;47645;45.288;12.038;2022-12-29T06:03:32;35.8;;;21.5;;
61739;SDS011;47645;45.288;12.038;2022-12-29T06:13:32;34.7;;;22.2;;
61739;SDS011;47645;45.288;12.038;2022-12-29T06:23:33;36.6;;;23.6;;
61739;SDS011;47645;45.288;12.038;2022-12-29T06:33:33;31.3;;;21.1;;
61739;SDS011;47645;45.288;12.038;2022-12-29T06:43:36;36.5;;;23.5;;
61739;SDS011;47645;45.288;12.038;2022-12-29T06:53:34;34.8;;;22.2;;
61739;SDS011;47645;45.288;12.038;2022-12-29T07:03:35;44.6;;;28.7;;
61739;SDS011;47645;45.288;12.038;2022-12-29T07:13:35;33.8;;;23.0;;
61739;SDS011;47645;45.288;12.038;2022-12-29T07:23:35;43.7;;;26.2;;
61739;SDS011;47645;45.288;12.038;2022-12-29T07:33:36;45.0;;;30.8;;
61739;SDS011;47645;45.288;12.038;2022-12-29T07:43:36;45.9;;;29.9;;
61739;SDS011;47645;45.288;12.038;2022-12-29T07:53:37;42.0;;;29.6;;
61739;SDS011;47645;45.288;12.038;2022-12-29T08:03:38;43.2;;;29.5;;
61739;SDS011;47645;45.288;12.038;2022-12-29T08:13:38;37.0;;;25.3;;
61739;SDS011;47645;45.288;12.038;2022-12-29T08:23:38;45.1;;;30.5;;
61739;SDS011;47645;45.288;12.038;2022-12-29T08:33:39;43.4;;;30.6;;
61739;SDS011;47645;45.288;12.038;2022-12-29T08:43:39;40.9;;;26.5;;
61739;SDS011;47645;45.288;12.038;2022-12-29T08:53:39;47.5;;;30.8;;
61739;SDS011;47645;45.288;12.038;2022-12-29T09:03:40;44.0;;;30.9;;
61739;SDS011;47645;45.288;12.038;2022-12-29T09:13:40;37.4;;;25.9;;
61739;SDS011;47645;45.288;12.038;2022-12-29T09:23:41;43.4;;;29.9;;
61739;SDS011;47645;45.288;12.038;2022-12-29T09:33:41;49.8;;;30.4;;
61739;SDS011;47645;45.288;12.038;2022-12-29T09:43:45;51.1;;;31.7;;
61739;SDS011;47645;45.288;12.038;2022-12-29T09:53:43;41.6;;;28.5;;
61739;SDS011;47645;45.288;12.038;2022-12-29T10:03:45;40.2;;;26.5;;
61739;SDS011;47645;45.288;12.038;2022-12-29T10:13:48;39.6;;;28.6;;
61739;SDS011;47645;45.288;12.038;2022-12-29T10:23:44;43.6;;;30.8;;
61739;SDS011;47645;45.288;12.038;2022-12-29T10:33:44;41.5;;;29.3;;
61739;SDS011;47645;45.288;12.038;2022-12-29T10:43:45;43.0;;;29.0;;
61739;SDS011;47645;45.288;12.038;2022-12-29T10:53:46;43.7;;;28.2;;
61739;SDS011;47645;45.288;12.038;2022-12-29T11:03:48;40.6;;;27.8;;
61739;SDS011;47645;45.288;12.038;2022-12-29T11:13:47;42.7;;;27.2;;
61739;SDS011;47645;45.288;12.038;2022-12-29T11:23:48;41.5;;;27.2;;
61739;SDS011;47645;45.288;12.038;2022-12-29T11:33:47;42.5;;;29.7;;
61739;SDS011;47645;45.288;12.038;2022-12-29T11:43:48;41.3;;;26.8;;
61739;SDS011;47645;45.288;12.038;2022-12-29T11:53:49;40.6;;;26.5;;
61739;SDS011;47645;45.288;12.038;2022-12-29T12:03:51;40.0;;;25.3;;
61739;SDS011;47645;45.288;12.038;2022-12-29T12:13:53;37.2;;;24.9;;
61739;SDS011;47645;45.288;12.038;2022-12-29T12:24:26;41.8;;;27.6;;
61739;SDS011;47645;45.288;12.038;2022-12-29T12:33:51;40.6;;;27.1;;
61739;SDS011;47645;45.288;12.038;2022-12-29T12:43:52;45.9;;;31.4;;
61739;SDS011;47645;45.288;12.038;2022-12-29T12:53:56;52.5;;;31.2;;
61739;SDS011;47645;45.288;12.038;2022-12-29T13:03:59;54.8;;;32.3;;
61739;SDS011;47645;45.288;12.038;2022-12-29T13:13:59;54.4;;;30.8;;
61739;SDS011;47645;45.288;12.038;2022-12-29T13:23:54;48.9;;;31.2;;
61739;SDS011;47645;45.288;12.038;2022-12-29T13:33:56;52.1;;;32.0;;
61739;SDS011;47645;45.288;12.038;2022-12-29T13:43:54;50.7;;;32.4;;
61739;SDS011;47645;45.288;12.038;2022-12-29T13:53:58;43.1;;;26.7;;
61739;SDS011;47645;45.288;12.038;2022-12-29T14:03:56;46.2;;;28.9;;
61739;SDS011;47645;45.288;12.038;2022-12-29T14:13:56;57.8;;;34.1;;
61739;SDS011;47645;45.288;12.038;2022-12-29T14:24:25;53.8;;;32.5;;
61739;SDS011;47645;45.288;12.038;2022-12-29T14:34:15;49.1;;;28.0;;
61739;SDS011;47645;45.288;12.038;2022-12-29T14:43:59;51.2;;;30.7;;
61739;SDS011;47645;45.288;12.038;2022-12-29T14:53:58;52.9;;;31.4;;
61739;SDS011;47645;45.288;12.038;2022-12-29T15:04:00;54.1;;;34.4;;
61739;SDS011;47645;45.288;12.038;2022-12-29T15:13:59;44.6;;;25.9;;
61739;SDS011;47645;45.288;12.038;2022-12-29T15:24:00;56.4;;;32.6;;
61739;SDS011;47645;45.288;12.038;2022-12-29T15:34:02;50.7;;;28.7;;
61739;SDS011;47645;45.288;12.038;2022-12-29T15:44:04;49.6;;;29.7;;
61739;SDS011;47645;45.288;12.038;2022-12-29T15:54:01;58.2;;;33.3;;
61739;SDS011;47645;45.288;12.038;2022-12-29T16:04:03;70.8;;;37.8;;
61739;SDS011;47645;45.288;12.038;2022-12-29T16:14:05;42.0;;;24.9;;
61739;SDS011;47645;45.288;12.038;2022-12-29T16:24:04;46.5;;;27.2;;
61739;SDS011;47645;45.288;12.038;2022-12-29T16:34:11;51.4;;;30.8;;
61739;SDS011;47645;45.288;12.038;2022-12-29T16:44:11;45.6;;;26.9;;
61739;SDS011;47645;45.288;12.038;2022-12-29T16:54:04;72.1;;;42.4;;
61739;SDS011;47645;45.288;12.038;2022-12-29T17:04:05;77.4;;;44.5;;
61739;SDS011;47645;45.288;12.038;2022-12-29T17:14:10;74.8;;;40.1;;
61739;SDS011;47645;45.288;12.038;2022-12-29T17:24:07;54.9;;;32.0;;
61739;SDS011;47645;45.288;12.038;2022-12-29T17:34:06;63.3;;;36.2;;
61739;SDS011;47645;45.288;12.038;2022-12-29T17:44:08;66.7;;;39.7;;
61739;SDS011;47645;45.288;12.038;2022-12-29T17:54:08;49.1;;;29.3;;
61739;SDS011;47645;45.288;12.038;2022-12-29T18:04:10;56.5;;;32.6;;
61739;SDS011;47645;45.288;12.038;2022-12-29T18:14:10;61.8;;;37.5;;
61739;SDS011;47645;45.288;12.038;2022-12-29T18:24:10;74.5;;;43.6;;
61739;SDS011;47645;45.288;12.038;2022-12-29T18:34:11;70.2;;;43.2;;
61739;SDS011;47645;45.288;12.038;2022-12-29T18:44:10;62.8;;;40.1;;
61739;SDS011;47645;45.288;12.038;2022-12-29T18:54:13;60.4;;;38.0;;
61739;SDS011;47645;45.288;12.038;2022-12-29T19:04:11;48.7;;;32.8;;
61739;SDS011;47645;45.288;12.038;2022-12-29T19:14:13;61.3;;;38.7;;
61739;SDS011;47645;45.288;12.038;2022-12-29T19:24:11;57.9;;;38.4;;
61739;SDS011;47645;45.288;12.038;2022-12-29T19:34:12;52.6;;;37.2;;
61739;SDS011;47645;45.288;12.038;2022-12-29T19:44:12;53.2;;;35.9;;
61739;SDS011;47645;45.288;12.038;2022-12-29T19:54:12;50.7;;;34.7;;
61739;SDS011;47645;45.288;12.038;2022-12-29T20:04:14;48.1;;;33.6;;
61739;SDS011;47645;45.288;12.038;2022-12-29T20:14:13;45.7;;;32.8;;
61739;SDS011;47645;45.288;12.038;2022-12-29T20:24:14;47.6;;;33.1;;
61739;SDS011;47645;45.288;12.038;2022-12-29T20:34:14;51.2;;;34.1;;
61739;SDS011;47645;45.288;12.038;2022-12-29T20:44:15;45.0;;;30.4;;
61739;SDS011;47645;45.288;12.038;2022-12-29T20:54:15;49.8;;;34.4;;
61739;SDS011;47645;45.288;12.038;2022-12-29T21:04:16;47.5;;;32.2;;
61739;SDS011;47645;45.288;12.038;2022-12-29T21:14:16;49.1;;;32.9;;
61739;SDS011;47645;45.288;12.038;2022-12-29T21:24:18;52.6;;;35.4;;
61739;SDS011;47645;45.288;12.038;2022-12-29T21:34:17;50.8;;;33.7;;
61739;SDS011;47645;45.288;12.038;2022-12-29T21:55:23;57.5;;;37.5;;
61739;SDS011;47645;45.288;12.038;2022-12-29T22:14:19;60.1;;;38.8;;
61739;SDS011;47645;45.288;12.038;2022-12-29T22:24:19;59.3;;;39.3;;
61739;SDS011;47645;45.288;12.038;2022-12-29T22:34:20;55.9;;;37.7;;
61739;SDS011;47645;45.288;12.038;2022-12-29T22:44:21;57.3;;;36.4;;
61739;SDS011;47645;45.288;12.038;2022-12-29T22:54:20;51.2;;;35.2;;
61739;SDS011;47645;45.288;12.038;2022-12-29T23:04:21;48.2;;;33.1;;
61739;SDS011;47645;45.288;12.038;2022-12-29T23:14:22;49.7;;;32.6;;
61739;SDS011;47645;45.288;12.038;2022-12-29T23:24:22;49.7;;;32.6;;
61739;SDS011;47645;45.288;12.038;2022-12-29T23:34:22;48.2;;;31.9;;
61739;SDS011;47645;45.288;12.038;2022-12-29T23:44:23;50.4;;;32.2;;
61739;SDS011;47645;45.288;12.038;2022-12-29T23:54:24;51.2;;;33.0;;
